sensor_id;sensor_type;location;lat;lon;timestamp;P1;durP1;ratioP1;P2;durP2;ratioP2
41099;SDS011;26844;53.686;-6.346;2022-11-11T00:03:53;80.78;;;76.43;;
41099;SDS011;26844;53.686;-6.346;2022-11-11T00:06:18;38.30;;;36.53;;
41099;SDS011;26844;53.686;-6.346;2022-11-11T00:08:45;34.88;;;33.33;;
41099;SDS011;26844;53.686;-6.346;2022-11-11T00:11:11;33.85;;;32.08;;
41099;SDS011;26844;53.686;-6.346;2022-11-11T00:13:37;41.97;;;39.90;;
41099;SDS011;26844;53.686;-6.346;2022-11-11T00:16:09;64.78;;;61.67;;
41099;SDS011;26844;53.686;-6.346;2022-11-11T00:18:36;45.10;;;43.03;;
41099;SDS011;26844;53.686;-6.346;2022-11-11T00:21:20;80.80;;;76.75;;
41099;SDS011;26844;53.686;-6.346;2022-11-11T00:24:01;69.88;;;66.32;;
41099;SDS011;26844;53.686;-6.346;2022-11-11T00:26:44;63.10;;;59.78;;
41099;SDS011;26844;53.686;-6.346;2022-11-11T00:29:10;66.72;;;63.08;;
41099;SDS011;26844;53.686;-6.346;2022-11-11T00:31:35;50.10;;;47.75;;
41099;SDS011;26844;53.686;-6.346;2022-11-11T00:34:20;190.48;;;178.93;;
41099;SDS011;26844;53.686;-6.346;2022-11-11T00:36:45;107.95;;;95.05;;
41099;SDS011;26844;53.686;-6.346;2022-11-11T00:39:11;149.48;;;140.88;;
41099;SDS011;26844;53.686;-6.346;2022-11-11T00:41:36;190.82;;;174.50;;
41099;SDS011;26844;53.686;-6.346;2022-11-11T00:44:01;78.68;;;74.85;;
41099;SDS011;26844;53.686;-6.346;2022-11-11T00:46:26;128.85;;;121.45;;
41099;SDS011;26844;53.686;-6.346;2022-11-11T00:49:10;191.40;;;173.65;;
41099;SDS011;26844;53.686;-6.346;2022-11-11T00:51:54;131.00;;;123.65;;
41099;SDS011;26844;53.686;-6.346;2022-11-11T00:54:19;192.77;;;153.95;;
41099;SDS011;26844;53.686;-6.346;2022-11-11T00:56:44;76.05;;;72.35;;
41099;SDS011;26844;53.686;-6.346;2022-11-11T00:59:09;277.00;;;255.95;;
41099;SDS011;26844;53.686;-6.346;2022-11-11T01:01:35;105.80;;;100.35;;
41099;SDS011;26844;53.686;-6.346;2022-11-11T01:04:01;76.78;;;72.55;;
41099;SDS011;26844;53.686;-6.346;2022-11-11T01:06:26;137.40;;;129.45;;
41099;SDS011;26844;53.686;-6.346;2022-11-11T01:08:52;113.65;;;107.40;;
41099;SDS011;26844;53.686;-6.346;2022-11-11T01:11:18;353.13;;;275.58;;
41099;SDS011;26844;53.686;-6.346;2022-11-11T01:13:43;155.63;;;145.25;;
41099;SDS011;26844;53.686;-6.346;2022-11-11T01:16:13;233.57;;;216.32;;
41099;SDS011;26844;53.686;-6.346;2022-11-11T01:18:38;100.35;;;95.22;;
41099;SDS011;26844;53.686;-6.346;2022-11-11T01:21:05;248.55;;;226.95;;
41099;SDS011;26844;53.686;-6.346;2022-11-11T01:23:32;224.55;;;209.88;;
41099;SDS011;26844;53.686;-6.346;2022-11-11T01:26:02;89.88;;;85.57;;
41099;SDS011;26844;53.686;-6.346;2022-11-11T01:28:31;121.72;;;115.18;;
41099;SDS011;26844;53.686;-6.346;2022-11-11T01:31:00;230.88;;;206.57;;
41099;SDS011;26844;53.686;-6.346;2022-11-11T01:33:26;219.32;;;201.05;;
41099;SDS011;26844;53.686;-6.346;2022-11-11T01:35:52;205.77;;;187.55;;
41099;SDS011;26844;53.686;-6.346;2022-11-11T01:38:17;136.38;;;128.35;;
41099;SDS011;26844;53.686;-6.346;2022-11-11T01:40:42;311.88;;;282.92;;
41099;SDS011;26844;53.686;-6.346;2022-11-11T01:45:44;103.50;;;97.60;;
41099;SDS011;26844;53.686;-6.346;2022-11-11T01:48:13;100.88;;;95.70;;
41099;SDS011;26844;53.686;-6.346;2022-11-11T01:51:00;230.02;;;216.52;;
41099;SDS011;26844;53.686;-6.346;2022-11-11T01:53:26;178.63;;;165.02;;
41099;SDS011;26844;53.686;-6.346;2022-11-11T01:55:51;98.53;;;93.68;;
41099;SDS011;26844;53.686;-6.346;2022-11-11T01:58:16;123.75;;;116.88;;
41099;SDS011;26844;53.686;-6.346;2022-11-11T02:00:42;196.52;;;184.82;;
41099;SDS011;26844;53.686;-6.346;2022-11-11T02:03:08;125.28;;;114.70;;
41099;SDS011;26844;53.686;-6.346;2022-11-11T02:05:34;74.10;;;69.72;;
41099;SDS011;26844;53.686;-6.346;2022-11-11T02:08:13;58.83;;;55.83;;
41099;SDS011;26844;53.686;-6.346;2022-11-11T02:10:41;34.00;;;32.25;;
41099;SDS011;26844;53.686;-6.346;2022-11-11T02:13:13;83.82;;;79.53;;
41099;SDS011;26844;53.686;-6.346;2022-11-11T02:15:57;43.22;;;41.33;;
41099;SDS011;26844;53.686;-6.346;2022-11-11T02:18:22;80.38;;;74.82;;
41099;SDS011;26844;53.686;-6.346;2022-11-11T02:20:48;314.15;;;248.43;;
41099;SDS011;26844;53.686;-6.346;2022-11-11T02:23:14;53.38;;;50.33;;
41099;SDS011;26844;53.686;-6.346;2022-11-11T02:25:41;77.25;;;72.72;;
41099;SDS011;26844;53.686;-6.346;2022-11-11T02:28:08;113.90;;;106.65;;
41099;SDS011;26844;53.686;-6.346;2022-11-11T02:30:34;83.63;;;78.22;;
41099;SDS011;26844;53.686;-6.346;2022-11-11T02:32:59;154.57;;;143.60;;
41099;SDS011;26844;53.686;-6.346;2022-11-11T02:35:28;112.93;;;105.65;;
41099;SDS011;26844;53.686;-6.346;2022-11-11T02:37:54;42.65;;;40.35;;
41099;SDS011;26844;53.686;-6.346;2022-11-11T02:40:20;41.40;;;39.40;;
41099;SDS011;26844;53.686;-6.346;2022-11-11T02:42:47;69.15;;;65.43;;
41099;SDS011;26844;53.686;-6.346;2022-11-11T02:45:12;65.00;;;60.90;;
41099;SDS011;26844;53.686;-6.346;2022-11-11T02:47:37;171.88;;;161.30;;
41099;SDS011;26844;53.686;-6.346;2022-11-11T02:50:03;73.78;;;69.80;;
41099;SDS011;26844;53.686;-6.346;2022-11-11T02:52:28;21.55;;;20.45;;
41099;SDS011;26844;53.686;-6.346;2022-11-11T02:54:54;41.53;;;39.30;;
41099;SDS011;26844;53.686;-6.346;2022-11-11T02:57:19;152.88;;;140.52;;
41099;SDS011;26844;53.686;-6.346;2022-11-11T02:59:44;43.70;;;41.50;;
41099;SDS011;26844;53.686;-6.346;2022-11-11T03:02:09;172.27;;;160.73;;
41099;SDS011;26844;53.686;-6.346;2022-11-11T03:04:35;232.60;;;176.48;;
41099;SDS011;26844;53.686;-6.346;2022-11-11T03:07:01;50.15;;;47.72;;
41099;SDS011;26844;53.686;-6.346;2022-11-11T03:09:26;52.40;;;50.05;;
41099;SDS011;26844;53.686;-6.346;2022-11-11T03:11:51;185.27;;;173.25;;
41099;SDS011;26844;53.686;-6.346;2022-11-11T03:14:17;140.40;;;131.98;;
41099;SDS011;26844;53.686;-6.346;2022-11-11T03:16:42;192.55;;;176.65;;
41099;SDS011;26844;53.686;-6.346;2022-11-11T03:19:26;78.82;;;75.00;;
41099;SDS011;26844;53.686;-6.346;2022-11-11T03:21:51;215.95;;;202.07;;
41099;SDS011;26844;53.686;-6.346;2022-11-11T03:24:16;157.18;;;148.38;;
41099;SDS011;26844;53.686;-6.346;2022-11-11T03:26:42;77.07;;;72.97;;
41099;SDS011;26844;53.686;-6.346;2022-11-11T03:29:07;71.90;;;68.47;;
41099;SDS011;26844;53.686;-6.346;2022-11-11T03:31:32;130.45;;;122.82;;
41099;SDS011;26844;53.686;-6.346;2022-11-11T03:33:57;76.47;;;72.57;;
41099;SDS011;26844;53.686;-6.346;2022-11-11T03:36:42;54.63;;;52.00;;
41099;SDS011;26844;53.686;-6.346;2022-11-11T03:39:26;82.60;;;78.00;;
41099;SDS011;26844;53.686;-6.346;2022-11-11T03:41:51;80.45;;;76.60;;
41099;SDS011;26844;53.686;-6.346;2022-11-11T03:44:16;66.72;;;63.55;;
41099;SDS011;26844;53.686;-6.346;2022-11-11T03:46:42;132.80;;;125.00;;
41099;SDS011;26844;53.686;-6.346;2022-11-11T03:49:07;91.88;;;86.95;;
41099;SDS011;26844;53.686;-6.346;2022-11-11T03:51:32;132.27;;;125.47;;
41099;SDS011;26844;53.686;-6.346;2022-11-11T03:53:57;68.93;;;65.35;;
41099;SDS011;26844;53.686;-6.346;2022-11-11T03:56:24;49.80;;;47.10;;
41099;SDS011;26844;53.686;-6.346;2022-11-11T03:58:49;45.58;;;43.05;;
41099;SDS011;26844;53.686;-6.346;2022-11-11T04:01:14;54.17;;;50.33;;
41099;SDS011;26844;53.686;-6.346;2022-11-11T04:03:59;32.88;;;31.35;;
41099;SDS011;26844;53.686;-6.346;2022-11-11T04:06:43;22.08;;;20.95;;
41099;SDS011;26844;53.686;-6.346;2022-11-11T04:09:27;28.42;;;27.00;;
41099;SDS011;26844;53.686;-6.346;2022-11-11T04:12:11;154.25;;;111.85;;
41099;SDS011;26844;53.686;-6.346;2022-11-11T04:14:36;22.88;;;21.83;;
41099;SDS011;26844;53.686;-6.346;2022-11-11T04:17:20;79.22;;;75.43;;
41099;SDS011;26844;53.686;-6.346;2022-11-11T04:19:45;234.02;;;216.07;;
41099;SDS011;26844;53.686;-6.346;2022-11-11T04:22:29;229.25;;;217.38;;
41099;SDS011;26844;53.686;-6.346;2022-11-11T04:24:54;436.30;;;398.20;;
41099;SDS011;26844;53.686;-6.346;2022-11-11T04:27:37;362.08;;;327.98;;
41099;SDS011;26844;53.686;-6.346;2022-11-11T04:30:03;294.95;;;277.95;;
41099;SDS011;26844;53.686;-6.346;2022-11-11T04:32:28;317.92;;;301.00;;
41099;SDS011;26844;53.686;-6.346;2022-11-11T04:35:00;300.10;;;281.33;;
41099;SDS011;26844;53.686;-6.346;2022-11-11T04:37:27;263.65;;;248.93;;
41099;SDS011;26844;53.686;-6.346;2022-11-11T04:39:54;362.02;;;334.83;;
41099;SDS011;26844;53.686;-6.346;2022-11-11T04:42:38;383.23;;;357.83;;
41099;SDS011;26844;53.686;-6.346;2022-11-11T04:45:03;205.30;;;194.73;;
41099;SDS011;26844;53.686;-6.346;2022-11-11T04:47:54;349.13;;;314.33;;
41099;SDS011;26844;53.686;-6.346;2022-11-11T04:50:20;190.38;;;180.43;;
41099;SDS011;26844;53.686;-6.346;2022-11-11T04:52:45;212.73;;;200.32;;
41099;SDS011;26844;53.686;-6.346;2022-11-11T04:55:10;289.48;;;273.27;;
41099;SDS011;26844;53.686;-6.346;2022-11-11T04:57:54;175.30;;;166.07;;
41099;SDS011;26844;53.686;-6.346;2022-11-11T05:00:19;389.15;;;364.45;;
41099;SDS011;26844;53.686;-6.346;2022-11-11T05:02:45;289.98;;;273.30;;
41099;SDS011;26844;53.686;-6.346;2022-11-11T05:05:29;255.10;;;241.65;;
41099;SDS011;26844;53.686;-6.346;2022-11-11T05:08:14;425.38;;;397.90;;
41099;SDS011;26844;53.686;-6.346;2022-11-11T05:10:58;385.42;;;361.52;;
41099;SDS011;26844;53.686;-6.346;2022-11-11T05:13:23;368.52;;;346.75;;
41099;SDS011;26844;53.686;-6.346;2022-11-11T05:16:17;291.15;;;275.90;;
41099;SDS011;26844;53.686;-6.346;2022-11-11T05:19:02;252.95;;;240.65;;
41099;SDS011;26844;53.686;-6.346;2022-11-11T05:21:46;236.75;;;224.32;;
41099;SDS011;26844;53.686;-6.346;2022-11-11T05:24:11;278.77;;;264.58;;
41099;SDS011;26844;53.686;-6.346;2022-11-11T05:26:55;258.67;;;245.23;;
41099;SDS011;26844;53.686;-6.346;2022-11-11T05:29:20;264.08;;;248.82;;
41099;SDS011;26844;53.686;-6.346;2022-11-11T05:31:45;186.38;;;177.35;;
41099;SDS011;26844;53.686;-6.346;2022-11-11T05:34:10;247.98;;;233.77;;
41099;SDS011;26844;53.686;-6.346;2022-11-11T05:36:36;166.75;;;157.90;;
41099;SDS011;26844;53.686;-6.346;2022-11-11T05:39:01;215.93;;;202.27;;
41099;SDS011;26844;53.686;-6.346;2022-11-11T05:41:26;242.38;;;227.45;;
41099;SDS011;26844;53.686;-6.346;2022-11-11T05:43:51;242.35;;;230.10;;
41099;SDS011;26844;53.686;-6.346;2022-11-11T05:46:17;291.35;;;276.05;;
41099;SDS011;26844;53.686;-6.346;2022-11-11T05:48:42;253.55;;;239.00;;
41099;SDS011;26844;53.686;-6.346;2022-11-11T05:51:27;358.50;;;334.67;;
41099;SDS011;26844;53.686;-6.346;2022-11-11T05:53:53;237.55;;;225.35;;
41099;SDS011;26844;53.686;-6.346;2022-11-11T05:56:18;457.52;;;421.38;;
41099;SDS011;26844;53.686;-6.346;2022-11-11T05:58:43;302.08;;;286.05;;
41099;SDS011;26844;53.686;-6.346;2022-11-11T06:01:08;352.67;;;333.23;;
41099;SDS011;26844;53.686;-6.346;2022-11-11T06:03:34;306.23;;;289.77;;
41099;SDS011;26844;53.686;-6.346;2022-11-11T06:05:59;245.00;;;231.38;;
41099;SDS011;26844;53.686;-6.346;2022-11-11T06:08:24;299.23;;;282.70;;
41099;SDS011;26844;53.686;-6.346;2022-11-11T06:10:49;271.27;;;255.63;;
41099;SDS011;26844;53.686;-6.346;2022-11-11T06:13:17;336.23;;;312.73;;
41099;SDS011;26844;53.686;-6.346;2022-11-11T06:15:42;380.10;;;356.10;;
41099;SDS011;26844;53.686;-6.346;2022-11-11T06:18:07;582.53;;;534.33;;
41099;SDS011;26844;53.686;-6.346;2022-11-11T06:20:33;404.88;;;372.25;;
41099;SDS011;26844;53.686;-6.346;2022-11-11T06:22:59;270.70;;;257.05;;
41099;SDS011;26844;53.686;-6.346;2022-11-11T06:25:26;283.10;;;267.50;;
41099;SDS011;26844;53.686;-6.346;2022-11-11T06:28:10;250.40;;;233.23;;
41099;SDS011;26844;53.686;-6.346;2022-11-11T06:30:36;196.15;;;186.25;;
41099;SDS011;26844;53.686;-6.346;2022-11-11T06:33:01;269.38;;;252.93;;
41099;SDS011;26844;53.686;-6.346;2022-11-11T06:35:26;204.02;;;192.98;;
41099;SDS011;26844;53.686;-6.346;2022-11-11T06:37:52;336.60;;;303.70;;
41099;SDS011;26844;53.686;-6.346;2022-11-11T06:40:17;240.02;;;226.32;;
41099;SDS011;26844;53.686;-6.346;2022-11-11T06:42:42;181.80;;;172.90;;
41099;SDS011;26844;53.686;-6.346;2022-11-11T06:45:08;370.88;;;333.40;;
41099;SDS011;26844;53.686;-6.346;2022-11-11T06:47:33;280.13;;;264.50;;
41099;SDS011;26844;53.686;-6.346;2022-11-11T06:49:58;241.80;;;226.18;;
41099;SDS011;26844;53.686;-6.346;2022-11-11T06:52:24;213.88;;;200.88;;
41099;SDS011;26844;53.686;-6.346;2022-11-11T06:54:49;330.70;;;306.85;;
41099;SDS011;26844;53.686;-6.346;2022-11-11T06:57:14;254.90;;;238.90;;
41099;SDS011;26844;53.686;-6.346;2022-11-11T06:59:39;192.10;;;181.68;;
41099;SDS011;26844;53.686;-6.346;2022-11-11T07:02:05;279.88;;;261.58;;
41099;SDS011;26844;53.686;-6.346;2022-11-11T07:04:30;154.50;;;145.93;;
41099;SDS011;26844;53.686;-6.346;2022-11-11T07:06:55;249.18;;;234.50;;
41099;SDS011;26844;53.686;-6.346;2022-11-11T07:09:20;286.42;;;263.30;;
41099;SDS011;26844;53.686;-6.346;2022-11-11T07:11:47;190.07;;;178.23;;
41099;SDS011;26844;53.686;-6.346;2022-11-11T07:14:12;130.23;;;122.57;;
41099;SDS011;26844;53.686;-6.346;2022-11-11T07:16:37;205.35;;;190.48;;
41099;SDS011;26844;53.686;-6.346;2022-11-11T07:19:03;104.88;;;99.65;;
41099;SDS011;26844;53.686;-6.346;2022-11-11T07:21:28;191.80;;;174.43;;
41099;SDS011;26844;53.686;-6.346;2022-11-11T07:23:53;163.57;;;149.55;;
41099;SDS011;26844;53.686;-6.346;2022-11-11T07:26:18;298.92;;;278.92;;
41099;SDS011;26844;53.686;-6.346;2022-11-11T07:28:44;224.23;;;211.02;;
41099;SDS011;26844;53.686;-6.346;2022-11-11T07:31:09;336.50;;;315.35;;
41099;SDS011;26844;53.686;-6.346;2022-11-11T07:33:34;280.42;;;260.38;;
41099;SDS011;26844;53.686;-6.346;2022-11-11T07:35:59;104.45;;;99.45;;
41099;SDS011;26844;53.686;-6.346;2022-11-11T07:38:25;128.93;;;121.80;;
41099;SDS011;26844;53.686;-6.346;2022-11-11T07:40:50;235.82;;;216.60;;
41099;SDS011;26844;53.686;-6.346;2022-11-11T07:43:15;365.92;;;333.52;;
41099;SDS011;26844;53.686;-6.346;2022-11-11T07:45:41;141.60;;;134.15;;
41099;SDS011;26844;53.686;-6.346;2022-11-11T07:48:06;276.55;;;259.48;;
41099;SDS011;26844;53.686;-6.346;2022-11-11T07:50:32;114.03;;;108.15;;
41099;SDS011;26844;53.686;-6.346;2022-11-11T07:52:57;259.10;;;239.00;;
41099;SDS011;26844;53.686;-6.346;2022-11-11T07:55:22;190.23;;;180.57;;
41099;SDS011;26844;53.686;-6.346;2022-11-11T07:57:50;175.23;;;165.10;;
41099;SDS011;26844;53.686;-6.346;2022-11-11T08:00:16;116.65;;;111.00;;
41099;SDS011;26844;53.686;-6.346;2022-11-11T08:02:45;112.97;;;107.00;;
41099;SDS011;26844;53.686;-6.346;2022-11-11T08:05:10;115.68;;;109.53;;
41099;SDS011;26844;53.686;-6.346;2022-11-11T08:07:35;130.93;;;124.15;;
41099;SDS011;26844;53.686;-6.346;2022-11-11T08:10:01;203.30;;;192.10;;
41099;SDS011;26844;53.686;-6.346;2022-11-11T08:12:27;255.95;;;239.82;;
41099;SDS011;26844;53.686;-6.346;2022-11-11T08:15:11;246.98;;;228.82;;
41099;SDS011;26844;53.686;-6.346;2022-11-11T08:17:39;202.60;;;187.68;;
41099;SDS011;26844;53.686;-6.346;2022-11-11T08:20:08;130.85;;;123.75;;
41099;SDS011;26844;53.686;-6.346;2022-11-11T08:22:37;155.35;;;147.75;;
41099;SDS011;26844;53.686;-6.346;2022-11-11T08:25:02;243.90;;;220.07;;
41099;SDS011;26844;53.686;-6.346;2022-11-11T08:27:28;192.73;;;181.15;;
41099;SDS011;26844;53.686;-6.346;2022-11-11T08:29:53;161.98;;;153.00;;
41099;SDS011;26844;53.686;-6.346;2022-11-11T08:32:18;117.00;;;111.32;;
41099;SDS011;26844;53.686;-6.346;2022-11-11T08:34:43;152.07;;;143.30;;
41099;SDS011;26844;53.686;-6.346;2022-11-11T08:37:09;110.75;;;104.95;;
41099;SDS011;26844;53.686;-6.346;2022-11-11T08:39:34;232.70;;;218.95;;
41099;SDS011;26844;53.686;-6.346;2022-11-11T08:41:59;141.82;;;134.85;;
41099;SDS011;26844;53.686;-6.346;2022-11-11T08:44:24;332.65;;;306.52;;
41099;SDS011;26844;53.686;-6.346;2022-11-11T08:46:50;235.77;;;222.75;;
41099;SDS011;26844;53.686;-6.346;2022-11-11T08:49:15;159.82;;;150.90;;
41099;SDS011;26844;53.686;-6.346;2022-11-11T08:51:40;130.43;;;123.70;;
41099;SDS011;26844;53.686;-6.346;2022-11-11T08:54:05;186.18;;;176.05;;
41099;SDS011;26844;53.686;-6.346;2022-11-11T08:56:31;171.93;;;163.23;;
41099;SDS011;26844;53.686;-6.346;2022-11-11T08:58:56;150.63;;;142.98;;
41099;SDS011;26844;53.686;-6.346;2022-11-11T09:01:21;218.10;;;206.82;;
41099;SDS011;26844;53.686;-6.346;2022-11-11T09:03:46;148.43;;;141.30;;
41099;SDS011;26844;53.686;-6.346;2022-11-11T09:06:12;189.45;;;178.27;;
41099;SDS011;26844;53.686;-6.346;2022-11-11T09:08:39;212.80;;;201.43;;
41099;SDS011;26844;53.686;-6.346;2022-11-11T09:11:05;306.98;;;282.13;;
41099;SDS011;26844;53.686;-6.346;2022-11-11T09:13:30;333.85;;;310.58;;
41099;SDS011;26844;53.686;-6.346;2022-11-11T09:15:55;173.05;;;164.57;;
41099;SDS011;26844;53.686;-6.346;2022-11-11T09:18:21;223.45;;;211.38;;
41099;SDS011;26844;53.686;-6.346;2022-11-11T09:20:47;223.48;;;210.93;;
41099;SDS011;26844;53.686;-6.346;2022-11-11T09:23:12;209.95;;;198.85;;
41099;SDS011;26844;53.686;-6.346;2022-11-11T09:25:37;155.70;;;148.13;;
41099;SDS011;26844;53.686;-6.346;2022-11-11T09:28:02;240.90;;;226.93;;
41099;SDS011;26844;53.686;-6.346;2022-11-11T09:30:28;114.80;;;109.28;;
41099;SDS011;26844;53.686;-6.346;2022-11-11T09:32:53;153.82;;;146.02;;
41099;SDS011;26844;53.686;-6.346;2022-11-11T09:35:19;209.55;;;193.98;;
41099;SDS011;26844;53.686;-6.346;2022-11-11T09:37:57;140.25;;;133.15;;
41099;SDS011;26844;53.686;-6.346;2022-11-11T09:40:23;185.10;;;174.63;;
41099;SDS011;26844;53.686;-6.346;2022-11-11T09:43:14;190.97;;;179.33;;
41099;SDS011;26844;53.686;-6.346;2022-11-11T09:45:46;149.75;;;142.05;;
41099;SDS011;26844;53.686;-6.346;2022-11-11T09:50:49;164.35;;;155.80;;
41099;SDS011;26844;53.686;-6.346;2022-11-11T09:53:20;168.88;;;159.85;;
41099;SDS011;26844;53.686;-6.346;2022-11-11T09:55:56;179.05;;;170.32;;
41099;SDS011;26844;53.686;-6.346;2022-11-11T10:00:56;266.90;;;250.35;;
41099;SDS011;26844;53.686;-6.346;2022-11-11T10:03:23;295.55;;;277.45;;
41099;SDS011;26844;53.686;-6.346;2022-11-11T10:08:36;232.63;;;219.57;;
41099;SDS011;26844;53.686;-6.346;2022-11-11T10:11:04;173.25;;;164.43;;
41099;SDS011;26844;53.686;-6.346;2022-11-11T10:13:36;253.90;;;240.50;;
41099;SDS011;26844;53.686;-6.346;2022-11-11T10:21:07;309.90;;;292.42;;
41099;SDS011;26844;53.686;-6.346;2022-11-11T10:23:36;279.33;;;263.40;;
41099;SDS011;26844;53.686;-6.346;2022-11-11T10:26:03;299.80;;;282.90;;
41099;SDS011;26844;53.686;-6.346;2022-11-11T10:28:32;208.90;;;198.18;;
41099;SDS011;26844;53.686;-6.346;2022-11-11T10:30:59;347.65;;;325.65;;
41099;SDS011;26844;53.686;-6.346;2022-11-11T10:33:26;164.18;;;156.15;;
41099;SDS011;26844;53.686;-6.346;2022-11-11T10:40:51;256.85;;;236.90;;
41099;SDS011;26844;53.686;-6.346;2022-11-11T10:43:27;53.15;;;50.47;;
41099;SDS011;26844;53.686;-6.346;2022-11-11T10:46:03;85.30;;;77.18;;
41099;SDS011;26844;53.686;-6.346;2022-11-11T10:51:14;193.48;;;181.68;;
41099;SDS011;26844;53.686;-6.346;2022-11-11T10:56:22;183.82;;;173.65;;
41099;SDS011;26844;53.686;-6.346;2022-11-11T10:59:01;225.02;;;211.35;;
41099;SDS011;26844;53.686;-6.346;2022-11-11T11:02:12;171.75;;;159.43;;
41099;SDS011;26844;53.686;-6.346;2022-11-11T11:04:32;164.02;;;153.02;;
41099;SDS011;26844;53.686;-6.346;2022-11-11T11:07:01;177.13;;;166.13;;
41099;SDS011;26844;53.686;-6.346;2022-11-11T11:11:58;252.30;;;234.10;;
41099;SDS011;26844;53.686;-6.346;2022-11-11T11:14:35;110.03;;;103.97;;
41099;SDS011;26844;53.686;-6.346;2022-11-11T11:17:06;147.20;;;137.10;;
41099;SDS011;26844;53.686;-6.346;2022-11-11T11:19:32;126.85;;;120.10;;
41099;SDS011;26844;53.686;-6.346;2022-11-11T11:21:58;162.98;;;152.27;;
41099;SDS011;26844;53.686;-6.346;2022-11-11T11:26:51;202.52;;;188.20;;
41099;SDS011;26844;53.686;-6.346;2022-11-11T11:29:23;179.55;;;163.35;;
41099;SDS011;26844;53.686;-6.346;2022-11-11T11:31:49;248.18;;;231.02;;
41099;SDS011;26844;53.686;-6.346;2022-11-11T11:34:14;223.90;;;207.20;;
41099;SDS011;26844;53.686;-6.346;2022-11-11T11:36:39;335.88;;;302.42;;
41099;SDS011;26844;53.686;-6.346;2022-11-11T11:39:05;103.70;;;98.85;;
41099;SDS011;26844;53.686;-6.346;2022-11-11T11:41:40;264.75;;;248.82;;
41099;SDS011;26844;53.686;-6.346;2022-11-11T11:46:50;266.15;;;249.88;;
41099;SDS011;26844;53.686;-6.346;2022-11-11T11:51:43;366.45;;;339.92;;
41099;SDS011;26844;53.686;-6.346;2022-11-11T11:56:55;481.05;;;441.58;;
41099;SDS011;26844;53.686;-6.346;2022-11-11T12:02:00;169.15;;;160.15;;
41099;SDS011;26844;53.686;-6.346;2022-11-11T12:04:33;188.02;;;178.00;;
41099;SDS011;26844;53.686;-6.346;2022-11-11T12:12:26;172.05;;;162.88;;
41099;SDS011;26844;53.686;-6.346;2022-11-11T12:15:10;279.98;;;260.95;;
41099;SDS011;26844;53.686;-6.346;2022-11-11T12:22:30;339.95;;;317.20;;
41099;SDS011;26844;53.686;-6.346;2022-11-11T12:27:32;403.70;;;366.00;;
41099;SDS011;26844;53.686;-6.346;2022-11-11T12:30:06;150.70;;;142.82;;
41099;SDS011;26844;53.686;-6.346;2022-11-11T12:40:42;187.15;;;175.60;;
41099;SDS011;26844;53.686;-6.346;2022-11-11T12:45:45;199.25;;;183.85;;
41099;SDS011;26844;53.686;-6.346;2022-11-11T12:58:29;189.98;;;176.45;;
41099;SDS011;26844;53.686;-6.346;2022-11-11T13:01:12;71.15;;;67.68;;
41099;SDS011;26844;53.686;-6.346;2022-11-11T13:03:53;108.30;;;102.78;;
41099;SDS011;26844;53.686;-6.346;2022-11-11T13:09:51;247.50;;;232.95;;
41099;SDS011;26844;53.686;-6.346;2022-11-11T13:16:51;218.75;;;206.23;;
41099;SDS011;26844;53.686;-6.346;2022-11-11T13:21:48;228.27;;;214.10;;
41099;SDS011;26844;53.686;-6.346;2022-11-11T13:24:16;314.15;;;292.20;;
41099;SDS011;26844;53.686;-6.346;2022-11-11T13:32:09;73.38;;;69.25;;
41099;SDS011;26844;53.686;-6.346;2022-11-11T13:37:02;70.15;;;66.32;;
41099;SDS011;26844;53.686;-6.346;2022-11-11T13:41:54;206.10;;;192.00;;
41099;SDS011;26844;53.686;-6.346;2022-11-11T13:44:21;147.32;;;139.57;;
41099;SDS011;26844;53.686;-6.346;2022-11-11T13:46:48;71.07;;;67.50;;
41099;SDS011;26844;53.686;-6.346;2022-11-11T13:49:20;80.50;;;76.47;;
41099;SDS011;26844;53.686;-6.346;2022-11-11T13:51:46;172.95;;;163.35;;
41099;SDS011;26844;53.686;-6.346;2022-11-11T13:54:40;115.95;;;109.95;;
41099;SDS011;26844;53.686;-6.346;2022-11-11T13:57:07;95.63;;;90.45;;
41099;SDS011;26844;53.686;-6.346;2022-11-11T13:59:40;88.53;;;84.05;;
41099;SDS011;26844;53.686;-6.346;2022-11-11T14:07:08;177.55;;;165.65;;
41099;SDS011;26844;53.686;-6.346;2022-11-11T14:12:40;162.63;;;152.68;;
41099;SDS011;26844;53.686;-6.346;2022-11-11T14:15:03;52.13;;;49.33;;
41099;SDS011;26844;53.686;-6.346;2022-11-11T14:17:32;107.03;;;101.20;;
41099;SDS011;26844;53.686;-6.346;2022-11-11T14:19:57;16.65;;;15.80;;
41099;SDS011;26844;53.686;-6.346;2022-11-11T14:22:27;67.63;;;64.45;;
41099;SDS011;26844;53.686;-6.346;2022-11-11T14:24:52;53.33;;;50.63;;
41099;SDS011;26844;53.686;-6.346;2022-11-11T14:27:20;69.85;;;66.47;;
41099;SDS011;26844;53.686;-6.346;2022-11-11T14:29:53;53.25;;;50.67;;
41099;SDS011;26844;53.686;-6.346;2022-11-11T14:32:41;67.20;;;63.55;;
41099;SDS011;26844;53.686;-6.346;2022-11-11T14:37:42;64.47;;;61.30;;
41099;SDS011;26844;53.686;-6.346;2022-11-11T14:40:11;174.95;;;163.75;;
41099;SDS011;26844;53.686;-6.346;2022-11-11T14:47:49;73.65;;;69.95;;
41099;SDS011;26844;53.686;-6.346;2022-11-11T14:52:57;116.50;;;107.68;;
41099;SDS011;26844;53.686;-6.346;2022-11-11T14:55:33;16.20;;;15.35;;
41099;SDS011;26844;53.686;-6.346;2022-11-11T14:58:00;20.52;;;19.60;;
41099;SDS011;26844;53.686;-6.346;2022-11-11T15:00:32;115.05;;;108.63;;
41099;SDS011;26844;53.686;-6.346;2022-11-11T15:03:08;70.97;;;67.00;;
41099;SDS011;26844;53.686;-6.346;2022-11-11T15:05:52;64.28;;;60.78;;
41099;SDS011;26844;53.686;-6.346;2022-11-11T15:08:25;61.70;;;58.47;;
41099;SDS011;26844;53.686;-6.346;2022-11-11T15:13:31;110.40;;;104.38;;
41099;SDS011;26844;53.686;-6.346;2022-11-11T15:21:51;119.65;;;112.88;;
41099;SDS011;26844;53.686;-6.346;2022-11-11T15:34:53;84.50;;;80.10;;
41099;SDS011;26844;53.686;-6.346;2022-11-11T15:39:22;105.00;;;99.18;;
41099;SDS011;26844;53.686;-6.346;2022-11-11T15:41:49;52.50;;;50.00;;
41099;SDS011;26844;53.686;-6.346;2022-11-11T15:46:46;39.55;;;37.60;;
41099;SDS011;26844;53.686;-6.346;2022-11-11T15:49:12;182.23;;;170.15;;
41099;SDS011;26844;53.686;-6.346;2022-11-11T15:51:38;97.97;;;92.80;;
41099;SDS011;26844;53.686;-6.346;2022-11-11T15:56:42;48.20;;;46.00;;
41099;SDS011;26844;53.686;-6.346;2022-11-11T15:59:14;77.32;;;73.35;;
41099;SDS011;26844;53.686;-6.346;2022-11-11T16:01:40;129.27;;;121.65;;
41099;SDS011;26844;53.686;-6.346;2022-11-11T16:04:09;64.88;;;61.20;;
41099;SDS011;26844;53.686;-6.346;2022-11-11T16:06:38;65.85;;;60.05;;
41099;SDS011;26844;53.686;-6.346;2022-11-11T16:09:04;142.43;;;129.35;;
41099;SDS011;26844;53.686;-6.346;2022-11-11T16:11:29;71.85;;;68.05;;
41099;SDS011;26844;53.686;-6.346;2022-11-11T16:16:41;78.43;;;73.97;;
41099;SDS011;26844;53.686;-6.346;2022-11-11T16:19:16;54.28;;;51.72;;
41099;SDS011;26844;53.686;-6.346;2022-11-11T16:21:46;62.00;;;58.85;;
41099;SDS011;26844;53.686;-6.346;2022-11-11T16:24:23;97.80;;;92.88;;
41099;SDS011;26844;53.686;-6.346;2022-11-11T16:26:49;84.38;;;80.35;;